sensor_id;sensor_type;location;lat;lon;timestamp;pressure;altitude;pressure_sealevel;temperature;humidity
18678;BME280;9469;51.114;13.914;2023-02-05T00:04:25;100983.44;;;-1.17;97.59
18678;BME280;9469;51.114;13.914;2023-02-05T00:09:37;100980.44;;;-0.98;96.60
18678;BME280;9469;51.114;13.914;2023-02-05T00:14:56;100974.66;;;-1.24;97.45
18678;BME280;9469;51.114;13.914;2023-02-05T00:20:01;100985.81;;;-1.46;100.00
18678;BME280;9469;51.114;13.914;2023-02-05T00:25:06;100978.28;;;-1.25;100.00
18678;BME280;9469;51.114;13.914;2023-02-05T00:30:14;100977.63;;;-1.35;100.00
18678;BME280;9469;51.114;13.914;2023-02-05T00:35:20;100972.78;;;-1.38;100.00
18678;BME280;9469;51.114;13.914;2023-02-05T00:40:26;100977.03;;;-1.53;100.00
18678;BME280;9469;51.114;13.914;2023-02-05T00:45:33;100983.59;;;-1.73;100.00
18678;BME280;9469;51.114;13.914;2023-02-05T00:50:38;100978.78;;;-1.37;100.00
18678;BME280;9469;51.114;13.914;2023-02-05T00:55:44;100975.38;;;-1.46;100.00
18678;BME280;9469;51.114;13.914;2023-02-05T01:00:52;100993.06;;;-1.80;100.00
18678;BME280;9469;51.114;13.914;2023-02-05T01:05:57;100992.59;;;-2.16;100.00
18678;BME280;9469;51.114;13.914;2023-02-05T01:11:06;100994.53;;;-2.34;100.00
18678;BME280;9469;51.114;13.914;2023-02-05T01:16:14;100990.94;;;-2.41;100.00
18678;BME280;9469;51.114;13.914;2023-02-05T01:21:22;100993.56;;;-2.01;100.00
18678;BME280;9469;51.114;13.914;2023-02-05T01:26:27;100997.00;;;-2.00;100.00
18678;BME280;9469;51.114;13.914;2023-02-05T01:31:35;100992.03;;;-2.60;100.00
18678;BME280;9469;51.114;13.914;2023-02-05T01:36:40;100981.94;;;-2.63;100.00
18678;BME280;9469;51.114;13.914;2023-02-05T01:41:45;100982.88;;;-2.80;100.00
18678;BME280;9469;51.114;13.914;2023-02-05T01:46:54;100971.25;;;-2.20;100.00
18678;BME280;9469;51.114;13.914;2023-02-05T01:52:10;100953.94;;;-2.12;100.00
18678;BME280;9469;51.114;13.914;2023-02-05T01:57:18;100944.03;;;-2.25;100.00
18678;BME280;9469;51.114;13.914;2023-02-05T02:02:27;100937.31;;;-2.44;100.00
18678;BME280;9469;51.114;13.914;2023-02-05T02:07:32;100944.19;;;-2.27;100.00
18678;BME280;9469;51.114;13.914;2023-02-05T02:12:42;100936.34;;;-2.51;100.00
18678;BME280;9469;51.114;13.914;2023-02-05T02:17:53;100931.91;;;-2.82;100.00
18678;BME280;9469;51.114;13.914;2023-02-05T02:23:26;100921.16;;;-2.79;100.00
18678;BME280;9469;51.114;13.914;2023-02-05T02:28:44;100908.34;;;-2.65;100.00
18678;BME280;9469;51.114;13.914;2023-02-05T02:33:57;100895.56;;;-3.00;100.00
18678;BME280;9469;51.114;13.914;2023-02-05T02:39:09;100896.88;;;-3.04;100.00
18678;BME280;9469;51.114;13.914;2023-02-05T02:44:24;100893.31;;;-3.03;100.00
18678;BME280;9469;51.114;13.914;2023-02-05T02:49:34;100891.69;;;-2.88;100.00
18678;BME280;9469;51.114;13.914;2023-02-05T02:54:42;100884.16;;;-3.07;100.00
18678;BME280;9469;51.114;13.914;2023-02-05T02:59:58;100879.13;;;-3.09;100.00
18678;BME280;9469;51.114;13.914;2023-02-05T03:05:08;100864.63;;;-3.11;100.00
18678;BME280;9469;51.114;13.914;2023-02-05T03:10:21;100870.13;;;-3.30;100.00
18678;BME280;9469;51.114;13.914;2023-02-05T03:15:30;100853.34;;;-3.28;100.00
18678;BME280;9469;51.114;13.914;2023-02-05T03:20:41;100857.47;;;-3.09;100.00
18678;BME280;9469;51.114;13.914;2023-02-05T03:25:49;100866.34;;;-3.36;100.00
18678;BME280;9469;51.114;13.914;2023-02-05T03:31:08;100863.22;;;-2.89;100.00
18678;BME280;9469;51.114;13.914;2023-02-05T03:36:23;100852.88;;;-3.31;100.00
18678;BME280;9469;51.114;13.914;2023-02-05T03:41:38;100862.97;;;-3.20;100.00
18678;BME280;9469;51.114;13.914;2023-02-05T03:47:11;100854.88;;;-2.93;100.00
18678;BME280;9469;51.114;13.914;2023-02-05T03:52:26;100869.34;;;-3.15;100.00
18678;BME280;9469;51.114;13.914;2023-02-05T03:57:39;100868.47;;;-3.39;100.00
18678;BME280;9469;51.114;13.914;2023-02-05T04:02:49;100877.63;;;-3.19;100.00
18678;BME280;9469;51.114;13.914;2023-02-05T04:07:59;100856.69;;;-3.51;100.00
18678;BME280;9469;51.114;13.914;2023-02-05T04:13:09;100852.56;;;-3.70;100.00
18678;BME280;9469;51.114;13.914;2023-02-05T04:18:19;100856.19;;;-3.55;100.00
18678;BME280;9469;51.114;13.914;2023-02-05T04:23:24;100868.22;;;-3.62;100.00
18678;BME280;9469;51.114;13.914;2023-02-05T04:28:30;100863.13;;;-3.72;100.00
18678;BME280;9469;51.114;13.914;2023-02-05T04:33:40;100862.13;;;-3.71;100.00
18678;BME280;9469;51.114;13.914;2023-02-05T04:38:48;100864.63;;;-3.61;100.00
18678;BME280;9469;51.114;13.914;2023-02-05T04:43:54;100870.00;;;-3.54;100.00
18678;BME280;9469;51.114;13.914;2023-02-05T04:49:02;100870.66;;;-3.60;100.00
18678;BME280;9469;51.114;13.914;2023-02-05T04:54:07;100876.69;;;-3.52;100.00
18678;BME280;9469;51.114;13.914;2023-02-05T04:59:12;100888.28;;;-3.80;100.00
18678;BME280;9469;51.114;13.914;2023-02-05T05:04:20;100885.50;;;-3.53;100.00
18678;BME280;9469;51.114;13.914;2023-02-05T05:09:25;100874.94;;;-4.11;100.00
18678;BME280;9469;51.114;13.914;2023-02-05T05:14:31;100873.31;;;-4.12;100.00
18678;BME280;9469;51.114;13.914;2023-02-05T05:19:38;100878.88;;;-3.73;100.00
18678;BME280;9469;51.114;13.914;2023-02-05T05:24:43;100879.50;;;-3.79;100.00
18678;BME280;9469;51.114;13.914;2023-02-05T05:29:50;100878.19;;;-4.09;100.00
18678;BME280;9469;51.114;13.914;2023-02-05T05:34:57;100889.00;;;-4.21;100.00
18678;BME280;9469;51.114;13.914;2023-02-05T05:40:04;100893.59;;;-3.90;100.00
18678;BME280;9469;51.114;13.914;2023-02-05T05:45:21;100899.19;;;-3.77;100.00
18678;BME280;9469;51.114;13.914;2023-02-05T05:50:29;100905.28;;;-3.60;100.00
18678;BME280;9469;51.114;13.914;2023-02-05T05:55:35;100905.56;;;-3.97;100.00
18678;BME280;9469;51.114;13.914;2023-02-05T06:00:41;100901.28;;;-3.46;100.00
18678;BME280;9469;51.114;13.914;2023-02-05T06:05:48;100908.06;;;-3.87;100.00
18678;BME280;9469;51.114;13.914;2023-02-05T06:10:54;100914.16;;;-4.22;100.00
18678;BME280;9469;51.114;13.914;2023-02-05T06:15:59;100919.97;;;-4.28;100.00
18678;BME280;9469;51.114;13.914;2023-02-05T06:21:07;100931.47;;;-4.66;100.00
18678;BME280;9469;51.114;13.914;2023-02-05T06:26:12;100918.28;;;-4.72;100.00
18678;BME280;9469;51.114;13.914;2023-02-05T06:31:17;100913.47;;;-5.02;100.00
18678;BME280;9469;51.114;13.914;2023-02-05T06:36:25;100913.00;;;-5.16;100.00
18678;BME280;9469;51.114;13.914;2023-02-05T06:41:30;100911.69;;;-4.84;100.00
18678;BME280;9469;51.114;13.914;2023-02-05T06:46:35;100900.78;;;-4.88;100.00
18678;BME280;9469;51.114;13.914;2023-02-05T06:51:43;100914.28;;;-4.67;100.00
18678;BME280;9469;51.114;13.914;2023-02-05T06:56:48;100922.28;;;-4.43;100.00
18678;BME280;9469;51.114;13.914;2023-02-05T07:01:53;100906.63;;;-4.33;100.00
18678;BME280;9469;51.114;13.914;2023-02-05T07:07:01;100915.41;;;-4.08;100.00
18678;BME280;9469;51.114;13.914;2023-02-05T07:12:07;100918.53;;;-4.05;100.00
18678;BME280;9469;51.114;13.914;2023-02-05T07:17:12;100912.19;;;-4.28;100.00
18678;BME280;9469;51.114;13.914;2023-02-05T07:22:20;100930.78;;;-4.15;100.00
18678;BME280;9469;51.114;13.914;2023-02-05T07:27:25;100913.53;;;-4.42;100.00
18678;BME280;9469;51.114;13.914;2023-02-05T07:32:30;100914.03;;;-4.38;100.00
18678;BME280;9469;51.114;13.914;2023-02-05T07:37:39;100906.63;;;-4.33;100.00
18678;BME280;9469;51.114;13.914;2023-02-05T07:42:44;100920.00;;;-3.77;100.00
18678;BME280;9469;51.114;13.914;2023-02-05T07:47:51;100923.53;;;-3.52;100.00
18678;BME280;9469;51.114;13.914;2023-02-05T07:52:59;100909.06;;;-3.13;100.00
18678;BME280;9469;51.114;13.914;2023-02-05T07:58:04;100916.94;;;-2.64;100.00
18678;BME280;9469;51.114;13.914;2023-02-05T08:03:09;100919.09;;;-2.20;100.00
18678;BME280;9469;51.114;13.914;2023-02-05T08:08:17;100926.88;;;-2.60;100.00
18678;BME280;9469;51.114;13.914;2023-02-05T08:13:23;100918.38;;;-2.94;100.00
18678;BME280;9469;51.114;13.914;2023-02-05T08:18:27;100930.47;;;-2.61;100.00
18678;BME280;9469;51.114;13.914;2023-02-05T08:23:35;100907.38;;;-2.32;100.00
18678;BME280;9469;51.114;13.914;2023-02-05T08:28:40;100908.00;;;-2.46;100.00
18678;BME280;9469;51.114;13.914;2023-02-05T08:33:46;100892.38;;;-2.30;100.00
18678;BME280;9469;51.114;13.914;2023-02-05T08:38:56;100889.44;;;-2.19;100.00
18678;BME280;9469;51.114;13.914;2023-02-05T08:44:01;100877.44;;;-1.81;100.00
18678;BME280;9469;51.114;13.914;2023-02-05T08:49:06;100862.22;;;-1.61;100.00
18678;BME280;9469;51.114;13.914;2023-02-05T08:54:14;100855.28;;;-1.77;100.00
18678;BME280;9469;51.114;13.914;2023-02-05T08:59:19;100856.19;;;-1.62;100.00
18678;BME280;9469;51.114;13.914;2023-02-05T09:04:24;100844.66;;;-1.75;100.00
18678;BME280;9469;51.114;13.914;2023-02-05T09:09:33;100855.03;;;-1.59;100.00
18678;BME280;9469;51.114;13.914;2023-02-05T09:14:40;100844.66;;;-1.36;100.00
18678;BME280;9469;51.114;13.914;2023-02-05T09:19:45;100840.25;;;-1.36;100.00
18678;BME280;9469;51.114;13.914;2023-02-05T09:24:53;100836.16;;;-1.69;98.06
18678;BME280;9469;51.114;13.914;2023-02-05T09:29:58;100844.03;;;-1.47;96.40
18678;BME280;9469;51.114;13.914;2023-02-05T09:35:03;100834.69;;;-1.10;94.17
18678;BME280;9469;51.114;13.914;2023-02-05T09:40:18;100830.19;;;-0.71;93.88
18678;BME280;9469;51.114;13.914;2023-02-05T09:45:32;100818.47;;;-0.75;92.45
18678;BME280;9469;51.114;13.914;2023-02-05T09:50:40;100822.88;;;-0.98;93.15
18678;BME280;9469;51.114;13.914;2023-02-05T09:55:49;100821.72;;;-0.58;92.66
18678;BME280;9469;51.114;13.914;2023-02-05T10:00:58;100837.38;;;-0.50;92.47
18678;BME280;9469;51.114;13.914;2023-02-05T10:06:12;100826.91;;;-0.36;92.56
18678;BME280;9469;51.114;13.914;2023-02-05T10:11:26;100823.66;;;-0.52;90.72
18678;BME280;9469;51.114;13.914;2023-02-05T10:16:47;100811.25;;;-0.73;90.58
18678;BME280;9469;51.114;13.914;2023-02-05T10:22:11;100798.28;;;-0.66;90.76
18678;BME280;9469;51.114;13.914;2023-02-05T10:27:22;100799.63;;;-0.04;90.84
18678;BME280;9469;51.114;13.914;2023-02-05T10:32:38;100803.97;;;0.04;90.82
18678;BME280;9469;51.114;13.914;2023-02-05T10:37:50;100794.31;;;-0.25;90.43
18678;BME280;9469;51.114;13.914;2023-02-05T10:43:04;100794.47;;;0.17;88.41
18678;BME280;9469;51.114;13.914;2023-02-05T10:48:33;100802.22;;;0.40;87.66
18678;BME280;9469;51.114;13.914;2023-02-05T10:53:40;100791.88;;;-0.12;87.48
18678;BME280;9469;51.114;13.914;2023-02-05T10:58:51;100788.00;;;0.13;86.42
18678;BME280;9469;51.114;13.914;2023-02-05T11:03:59;100782.50;;;0.58;85.52
18678;BME280;9469;51.114;13.914;2023-02-05T11:09:27;100780.69;;;-0.06;85.67
18678;BME280;9469;51.114;13.914;2023-02-05T11:14:36;100776.63;;;0.06;85.12
18678;BME280;9469;51.114;13.914;2023-02-05T11:19:51;100774.28;;;0.11;82.74
18678;BME280;9469;51.114;13.914;2023-02-05T11:25:05;100769.56;;;0.57;81.98
18678;BME280;9469;51.114;13.914;2023-02-05T11:30:23;100770.91;;;0.67;82.46
18678;BME280;9469;51.114;13.914;2023-02-05T11:35:54;100766.72;;;0.52;83.20
18678;BME280;9469;51.114;13.914;2023-02-05T11:41:02;100770.03;;;0.46;83.26
18678;BME280;9469;51.114;13.914;2023-02-05T11:46:14;100755.19;;;0.32;82.16
18678;BME280;9469;51.114;13.914;2023-02-05T11:51:32;100735.16;;;0.24;83.37
18678;BME280;9469;51.114;13.914;2023-02-05T11:56:42;100741.34;;;0.73;83.19
18678;BME280;9469;51.114;13.914;2023-02-05T12:01:50;100736.94;;;0.38;81.85
18678;BME280;9469;51.114;13.914;2023-02-05T12:06:58;100721.00;;;0.76;81.86
18678;BME280;9469;51.114;13.914;2023-02-05T12:12:11;100734.56;;;0.79;81.11
18678;BME280;9469;51.114;13.914;2023-02-05T12:17:32;100740.47;;;0.88;78.78
18678;BME280;9469;51.114;13.914;2023-02-05T12:28:25;100741.31;;;0.52;74.57
18678;BME280;9469;51.114;13.914;2023-02-05T12:39:16;100725.22;;;0.55;73.85
18678;BME280;9469;51.114;13.914;2023-02-05T12:44:35;100731.72;;;0.81;75.33
18678;BME280;9469;51.114;13.914;2023-02-05T12:50:25;100727.22;;;0.96;75.72
18678;BME280;9469;51.114;13.914;2023-02-05T12:55:47;100723.75;;;0.67;77.29
18678;BME280;9469;51.114;13.914;2023-02-05T13:00:59;100723.88;;;1.02;78.28
18678;BME280;9469;51.114;13.914;2023-02-05T13:06:13;100722.75;;;0.68;76.29
18678;BME280;9469;51.114;13.914;2023-02-05T13:11:26;100711.84;;;0.65;77.98
18678;BME280;9469;51.114;13.914;2023-02-05T13:16:37;100705.03;;;0.70;76.39
18678;BME280;9469;51.114;13.914;2023-02-05T13:21:47;100712.66;;;0.65;76.64
18678;BME280;9469;51.114;13.914;2023-02-05T13:27:15;100701.00;;;0.96;73.55
18678;BME280;9469;51.114;13.914;2023-02-05T13:32:35;100691.91;;;1.13;71.65
18678;BME280;9469;51.114;13.914;2023-02-05T13:37:55;100692.47;;;0.87;73.98
18678;BME280;9469;51.114;13.914;2023-02-05T13:43:29;100699.69;;;0.79;74.68
18678;BME280;9469;51.114;13.914;2023-02-05T13:49:09;100698.44;;;1.02;73.60
18678;BME280;9469;51.114;13.914;2023-02-05T13:54:45;100713.28;;;1.16;72.16
18678;BME280;9469;51.114;13.914;2023-02-05T13:59:57;100709.94;;;1.63;71.85
18678;BME280;9469;51.114;13.914;2023-02-05T14:05:13;100720.84;;;1.60;73.54
18678;BME280;9469;51.114;13.914;2023-02-05T14:10:27;100721.69;;;1.33;71.31
18678;BME280;9469;51.114;13.914;2023-02-05T14:15:37;100723.81;;;1.85;71.50
18678;BME280;9469;51.114;13.914;2023-02-05T14:20:43;100731.75;;;1.64;71.89
18678;BME280;9469;51.114;13.914;2023-02-05T14:26:09;100711.81;;;1.35;72.82
18678;BME280;9469;51.114;13.914;2023-02-05T14:37:01;100692.97;;;1.59;73.95
18678;BME280;9469;51.114;13.914;2023-02-05T14:42:18;100692.59;;;1.62;75.02
18678;BME280;9469;51.114;13.914;2023-02-05T14:47:26;100710.66;;;1.44;75.24
18678;BME280;9469;51.114;13.914;2023-02-05T14:52:35;100716.81;;;1.30;74.53
18678;BME280;9469;51.114;13.914;2023-02-05T14:57:46;100719.06;;;1.33;74.88
18678;BME280;9469;51.114;13.914;2023-02-05T15:03:19;100735.25;;;1.43;74.02
18678;BME280;9469;51.114;13.914;2023-02-05T15:08:38;100735.53;;;1.27;75.59
18678;BME280;9469;51.114;13.914;2023-02-05T15:19:39;100726.69;;;1.07;76.69
18678;BME280;9469;51.114;13.914;2023-02-05T15:24:47;100734.91;;;0.76;72.94
18678;BME280;9469;51.114;13.914;2023-02-05T15:29:54;100735.03;;;0.68;73.52
18678;BME280;9469;51.114;13.914;2023-02-05T15:35:05;100744.44;;;0.62;71.18
18678;BME280;9469;51.114;13.914;2023-02-05T15:40:18;100733.38;;;0.46;69.87
18678;BME280;9469;51.114;13.914;2023-02-05T15:45:29;100730.69;;;0.39;71.19
18678;BME280;9469;51.114;13.914;2023-02-05T15:50:43;100718.09;;;0.28;72.55
18678;BME280;9469;51.114;13.914;2023-02-05T15:55:49;100716.59;;;0.19;73.38
18678;BME280;9469;51.114;13.914;2023-02-05T16:00:54;100728.91;;;0.25;76.72
18678;BME280;9469;51.114;13.914;2023-02-05T16:06:04;100735.34;;;0.23;78.94
18678;BME280;9469;51.114;13.914;2023-02-05T16:11:09;100741.13;;;0.18;80.35
18678;BME280;9469;51.114;13.914;2023-02-05T16:16:16;100743.50;;;-0.02;81.84
18678;BME280;9469;51.114;13.914;2023-02-05T16:21:31;100741.09;;;-0.03;82.90
18678;BME280;9469;51.114;13.914;2023-02-05T16:26:40;100743.88;;;-0.05;83.89
18678;BME280;9469;51.114;13.914;2023-02-05T16:31:47;100751.00;;;-0.13;84.41
18678;BME280;9469;51.114;13.914;2023-02-05T16:36:59;100758.69;;;-0.12;84.62
18678;BME280;9469;51.114;13.914;2023-02-05T16:42:07;100784.38;;;-0.15;84.41
18678;BME280;9469;51.114;13.914;2023-02-05T16:47:15;100802.53;;;-0.14;84.14
18678;BME280;9469;51.114;13.914;2023-02-05T16:52:31;100807.75;;;0.01;84.05
18678;BME280;9469;51.114;13.914;2023-02-05T16:57:37;100794.13;;;-0.09;84.96
18678;BME280;9469;51.114;13.914;2023-02-05T17:02:46;100802.69;;;-0.15;85.72
18678;BME280;9469;51.114;13.914;2023-02-05T17:07:57;100801.06;;;-0.31;86.99
18678;BME280;9469;51.114;13.914;2023-02-05T17:13:02;100799.13;;;-0.51;87.28
18678;BME280;9469;51.114;13.914;2023-02-05T17:18:21;100806.41;;;-0.61;87.94
18678;BME280;9469;51.114;13.914;2023-02-05T17:23:30;100803.56;;;-0.75;89.78
18678;BME280;9469;51.114;13.914;2023-02-05T17:28:37;100812.72;;;-0.70;91.21
18678;BME280;9469;51.114;13.914;2023-02-05T17:33:49;100816.38;;;-0.80;91.76
18678;BME280;9469;51.114;13.914;2023-02-05T17:38:57;100818.59;;;-0.91;92.08
18678;BME280;9469;51.114;13.914;2023-02-05T17:44:03;100815.31;;;-0.70;91.78
18678;BME280;9469;51.114;13.914;2023-02-05T17:49:09;100806.97;;;-1.11;93.08
18678;BME280;9469;51.114;13.914;2023-02-05T17:54:18;100811.94;;;-1.02;94.15
18678;BME280;9469;51.114;13.914;2023-02-05T17:59:24;100814.69;;;-1.18;95.57
18678;BME280;9469;51.114;13.914;2023-02-05T18:04:29;100804.28;;;-1.26;96.68
18678;BME280;9469;51.114;13.914;2023-02-05T18:09:38;100815.75;;;-1.35;95.80
18678;BME280;9469;51.114;13.914;2023-02-05T18:14:43;100812.19;;;-1.34;95.59
18678;BME280;9469;51.114;13.914;2023-02-05T18:19:48;100831.28;;;-1.11;95.12
18678;BME280;9469;51.114;13.914;2023-02-05T18:24:56;100843.06;;;-0.69;94.08
18678;BME280;9469;51.114;13.914;2023-02-05T18:30:01;100855.56;;;-0.80;95.09
18678;BME280;9469;51.114;13.914;2023-02-05T18:35:07;100836.69;;;-0.90;95.19
18678;BME280;9469;51.114;13.914;2023-02-05T18:40:19;100833.66;;;-1.01;97.92
18678;BME280;9469;51.114;13.914;2023-02-05T18:45:24;100840.50;;;-1.23;98.19
18678;BME280;9469;51.114;13.914;2023-02-05T18:50:32;100843.44;;;-1.26;97.37
18678;BME280;9469;51.114;13.914;2023-02-05T18:55:40;100844.09;;;-1.24;98.19
18678;BME280;9469;51.114;13.914;2023-02-05T19:00:45;100837.91;;;-1.31;99.08
18678;BME280;9469;51.114;13.914;2023-02-05T19:05:50;100854.41;;;-1.69;100.00
18678;BME280;9469;51.114;13.914;2023-02-05T19:10:59;100859.53;;;-1.84;100.00
18678;BME280;9469;51.114;13.914;2023-02-05T19:16:07;100857.44;;;-1.96;100.00
18678;BME280;9469;51.114;13.914;2023-02-05T19:21:19;100856.44;;;-1.87;100.00
18678;BME280;9469;51.114;13.914;2023-02-05T19:26:28;100879.13;;;-1.88;100.00
18678;BME280;9469;51.114;13.914;2023-02-05T19:31:35;100874.03;;;-1.89;99.72
18678;BME280;9469;51.114;13.914;2023-02-05T19:36:43;100877.03;;;-2.17;99.42
18678;BME280;9469;51.114;13.914;2023-02-05T19:41:52;100887.13;;;-2.22;100.00
18678;BME280;9469;51.114;13.914;2023-02-05T19:46:58;100891.69;;;-2.24;100.00
18678;BME280;9469;51.114;13.914;2023-02-05T19:52:04;100893.81;;;-2.35;100.00
18678;BME280;9469;51.114;13.914;2023-02-05T19:57:13;100880.97;;;-2.61;100.00
18678;BME280;9469;51.114;13.914;2023-02-05T20:02:21;100879.34;;;-2.54;100.00
18678;BME280;9469;51.114;13.914;2023-02-05T20:07:28;100878.03;;;-2.42;100.00
18678;BME280;9469;51.114;13.914;2023-02-05T20:12:37;100876.91;;;-2.63;100.00
18678;BME280;9469;51.114;13.914;2023-02-05T20:17:45;100873.81;;;-2.43;100.00
18678;BME280;9469;51.114;13.914;2023-02-05T20:22:52;100873.16;;;-2.45;100.00
18678;BME280;9469;51.114;13.914;2023-02-05T20:28:01;100863.69;;;-2.46;100.00
18678;BME280;9469;51.114;13.914;2023-02-05T20:33:06;100881.28;;;-2.40;100.00
18678;BME280;9469;51.114;13.914;2023-02-05T20:38:11;100867.63;;;-2.74;100.00
18678;BME280;9469;51.114;13.914;2023-02-05T20:43:19;100873.47;;;-2.48;100.00
18678;BME280;9469;51.114;13.914;2023-02-05T20:48:25;100869.56;;;-2.92;100.00
18678;BME280;9469;51.114;13.914;2023-02-05T20:53:33;100866.50;;;-2.71;100.00
18678;BME280;9469;51.114;13.914;2023-02-05T20:58:45;100863.69;;;-2.62;100.00
18678;BME280;9469;51.114;13.914;2023-02-05T21:03:52;100867.94;;;-2.53;100.00
18678;BME280;9469;51.114;13.914;2023-02-05T21:08:58;100885.53;;;-2.63;100.00
18678;BME280;9469;51.114;13.914;2023-02-05T21:14:06;100876.22;;;-2.81;100.00
18678;BME280;9469;51.114;13.914;2023-02-05T21:19:12;100906.34;;;-2.79;100.00
18678;BME280;9469;51.114;13.914;2023-02-05T21:24:19;100909.31;;;-2.66;100.00
18678;BME280;9469;51.114;13.914;2023-02-05T21:29:27;100925.25;;;-2.77;100.00
18678;BME280;9469;51.114;13.914;2023-02-05T21:34:34;100927.38;;;-2.72;100.00
18678;BME280;9469;51.114;13.914;2023-02-05T21:39:40;100938.94;;;-2.51;100.00
18678;BME280;9469;51.114;13.914;2023-02-05T21:44:47;100955.06;;;-2.55;100.00
18678;BME280;9469;51.114;13.914;2023-02-05T21:49:54;100971.06;;;-2.42;100.00
18678;BME280;9469;51.114;13.914;2023-02-05T21:54:59;100970.00;;;-2.81;100.00
18678;BME280;9469;51.114;13.914;2023-02-05T22:00:08;100969.06;;;-3.14;100.00
18678;BME280;9469;51.114;13.914;2023-02-05T22:05:13;100972.13;;;-3.19;100.00
18678;BME280;9469;51.114;13.914;2023-02-05T22:10:19;100965.44;;;-3.29;100.00
18678;BME280;9469;51.114;13.914;2023-02-05T22:15:26;100980.22;;;-3.64;100.00
18678;BME280;9469;51.114;13.914;2023-02-05T22:20:32;100985.28;;;-3.62;100.00
18678;BME280;9469;51.114;13.914;2023-02-05T22:25:37;100989.84;;;-3.82;100.00
18678;BME280;9469;51.114;13.914;2023-02-05T22:30:57;100992.25;;;-3.63;100.00
18678;BME280;9469;51.114;13.914;2023-02-05T22:36:03;100982.50;;;-3.60;100.00
18678;BME280;9469;51.114;13.914;2023-02-05T22:41:11;100996.53;;;-3.53;100.00
18678;BME280;9469;51.114;13.914;2023-02-05T22:46:20;100978.44;;;-3.63;100.00
18678;BME280;9469;51.114;13.914;2023-02-05T22:51:27;100974.91;;;-3.80;100.00
18678;BME280;9469;51.114;13.914;2023-02-05T22:56:34;100974.94;;;-4.23;100.00
18678;BME280;9469;51.114;13.914;2023-02-05T23:01:43;100998.78;;;-4.02;100.00
18678;BME280;9469;51.114;13.914;2023-02-05T23:06:48;101005.19;;;-3.53;100.00
18678;BME280;9469;51.114;13.914;2023-02-05T23:11:53;101000.66;;;-3.43;100.00
18678;BME280;9469;51.114;13.914;2023-02-05T23:17:01;100993.75;;;-3.78;100.00
18678;BME280;9469;51.114;13.914;2023-02-05T23:22:06;100988.97;;;-3.90;100.00
18678;BME280;9469;51.114;13.914;2023-02-05T23:27:12;100999.63;;;-4.01;100.00
18678;BME280;9469;51.114;13.914;2023-02-05T23:32:20;100996.28;;;-3.94;100.00
18678;BME280;9469;51.114;13.914;2023-02-05T23:37:24;100995.81;;;-4.07;100.00
18678;BME280;9469;51.114;13.914;2023-02-05T23:42:29;100986.28;;;-3.55;100.00
18678;BME280;9469;51.114;13.914;2023-02-05T23:47:37;100965.97;;;-3.51;100.00
18678;BME280;9469;51.114;13.914;2023-02-05T23:52:42;100973.28;;;-3.81;100.00
18678;BME280;9469;51.114;13.914;2023-02-05T23:57:47;100981.19;;;-3.90;100.00
